LTBUUACC

Guest
Details From LTBU - Corlu
To UACC - Astana Intl
Flight Number -
Tags Generated
Created
Modified
Stats Distance 1,878 nm / 3,478 km
Max Altitude 0 ft / 0 m
Waypoints 5
Social Downloads 0
Likes 0
Share VATSIM

Download

Looking for another format? Having issues loading an existing format? Contact us
Advertisement - Login to hide

Notes

Generated

Route

LTBU AP VARUS AST UACC

ID Type Via Altitude Latitude Longitude Leg Dist Tot Dist Heading (true) Name
O LTBU APT - 0 ft / 0 m 41.12942˚ 27.90528˚ - 0 nm - -
AP NDB - 0 ft / 0 m 45.03500˚ 37.39167˚ 477 nm 477 nm 57° / 64° ANAPA NDB
VARUS FIX - 0 ft / 0 m 46.78333˚ 42.71667˚ 245 nm 723 nm 63° / 67° -
AST VOR - 0 ft / 0 m 51.00111˚ 71.43417˚ 1154 nm 1877 nm 67° / 89° ASTANA VOR-DME
O UACC APT - 0 ft / 0 m 51.01097˚ 71.44957˚ 0 nm 1878 nm 45° / 45° -

Altitude Profile

Advertisement - Login to hide

Weather


0- 5 10 15 20 25 30 35+ Temperature / ° C

Clouds and Precipitation
Forecast for 2018-05-23 12:00 UTC. Updated 2 hours ago

Ground ~20,000 ft ~40,000 ft Winds

LTBU

Details ICAO LTBU (TEQ)
Name CORLU
Region Turkey
Timezone Europe/Istanbul (UTC+3.0)
Stats Elevation 574 ft / 175 m (AMSL)
Location 41.138250° 27.918944°
Runways 1
Magnetic Variation 5.389° E

METAR

LTBU 231020Z 04009KT 360V070 9999 SCT033 25/16 Q1019

Decode

TAF

Not found

Departure Runways

ID Width Length Bearing (true) Bearing (mag) Surface Threshold Offset Overrun Length
05 148 ft / 45 m 9,899 ft / 3,017 m 49.36° 43.97° Concrete 0 ft / 0 m 458 ft / 140 m
23 148 ft / 45 m 9,899 ft / 3,017 m 229.37° 223.98° Concrete 0 ft / 0 m 495 ft / 151 m

UACC

Details ICAO UACC (TSE)
Name Astana INTL
Region Kazakhstan and Kyrgyzstan
Timezone Asia/Almaty (UTC+6.0)
Stats Elevation 1,165 ft / 355 m (AMSL)
Location 51.022180° 71.467062°
Runways 1
Magnetic Variation 9.865° E

METAR

UACC 231030Z 01010MPS CAVOK 11/M03 Q1020 R04/0///70 NOSIG RMK QFE733/0977

Decode

TAF

TAF UACC 230500Z 2306/2406 33011G16MPS 9999 SCT030CB BKN050 TX12/2309Z TN03/2324Z TEMPO 2306/2309 34014G19MPS BECMG 2313/2315 29006MPS NSC

Decode

Destination Runways

ID Width Length Bearing (true) Bearing (mag) Surface Threshold Offset Overrun Length
04 148 ft / 45 m 11,467 ft / 3,495 m 44.45° 34.59° Asphalt 0 ft / 0 m 0 ft / 0 m
22 148 ft / 45 m 11,467 ft / 3,495 m 224.48° 214.62° Asphalt 0 ft / 0 m 0 ft / 0 m

Approach Navaids

Runway Type Ident Frequency Range Bearing (true) Bearing (mag) Slope Elevation
04 Localiser IMO 109.50 MHz 18 nm / 33 km 44.29° 34.43° - 1,165 ft / 355 m (AMSL)
04 Glidescope IMO 109.50 MHz 10 nm / 19 km 44.46° 34.60° 3.00° 1,165 ft / 355 m (AMSL)
22 Localiser IAK 111.70 MHz 18 nm / 33 km 224.56° 214.70° - 1,165 ft / 355 m (AMSL)
22 Glidescope IAK 111.70 MHz 10 nm / 19 km 224.46° 214.60° 3.00° 1,165 ft / 355 m (AMSL)